Latest Weather Observations for Canberra

IDN60901

Issued at 3:45 pm EST Saturday 19 April 2014 (issued every 10 minutes, with the page automatically refreshed every 10 minutes)

About weather observations | Map of Canberra area stations | Latest observations for Canberra area | Other Formats
Station Details ID: 070351 Name: CANBERRA AIRPORT Lat: -35.31 Lon: 149.20 Height: 577.05 m
Data from the previous 72 hours. | See also: Recent months at Canberra
Date/Time
EST
Tmp

°C
App
Tmp
°C
Dew
Point
°C
Rel
Hum
%
Delta-T

°C
Wind Press
QNH
hPa
Press
MSL
hPa
Rain
since
9 am
mm
Dir
 
Spd
km/h
Gust
km/h
Spd
kts
Gust
kts
19/03:30pm 15.7 11.3 6.7 55 4.5 NNW 19 24 10 13 1015.9 - 0.0
19/03:00pm 15.9 12.6 6.3 53 4.8 NNW 13 19 7 10 1015.8 1015.0 0.0
19/02:30pm 16.2 13.4 5.2 48 5.4 W 9 13 5 7 1015.8 - 0.0
19/02:00pm 15.8 12.8 4.2 46 5.6 NW 9 13 5 7 1015.9 - 0.0
19/01:30pm 15.6 12.5 3.4 44 5.8 W 9 15 5 8 1016.1 - 0.0
19/01:00pm 15.4 12.2 3.2 44 5.7 E 9 11 5 6 1016.4 - 0.0
19/12:30pm 14.4 10.8 3.2 47 5.2 SSW 11 19 6 10 1016.9 - 0.0
19/12:00pm 14.1 11.2 1.4 42 5.7 SSW 6 15 3 8 1017.2 1016.5 0.0
19/11:30am 13.5 9.3 1.5 44 5.3 SSW 13 19 7 10 1017.8 - 0.0
19/11:00am 13.3 9.8 3.7 52 4.5 S 11 17 6 9 1018.1 - 0.0
19/10:30am 12.8 8.6 3.7 54 4.2 S 15 24 8 13 1018.3 - 0.0
19/10:00am 12.3 7.5 2.7 52 4.3 S 17 20 9 11 1018.4 - 0.0
19/09:30am 11.7 7.4 3.0 55 3.9 S 15 26 8 14 1018.5 - 0.0
19/09:00am 10.8 6.8 2.6 57 3.6 ESE 13 19 7 10 1018.6 1017.9 0.0
19/08:30am 9.7 5.3 2.6 61 3.1 ESE 15 20 8 11 1018.5 - 0.0
19/08:00am 9.2 5.3 3.2 66 2.7 SSE 13 17 7 9 1018.2 - 0.0
19/07:30am 8.8 5.1 2.6 65 2.7 SE 11 17 6 9 1017.9 - 0.0
19/07:00am 8.2 4.6 2.9 69 2.3 SSE 11 19 6 10 1017.7 - 0.0
19/06:30am 7.8 3.4 2.5 69 2.3 SSE 15 22 8 12 1017.5 - 0.0
19/06:00am 7.7 3.4 3.0 72 2.1 SSE 15 19 8 10 1017.2 1016.5 0.0
19/05:30am 7.1 3.7 3.9 80 1.4 ESE 11 15 6 8 1017.0 - 0.0
19/05:00am 5.2 1.6 2.7 84 1.1 SSE 11 15 6 8 1016.7 - 0.0
19/04:30am 4.0 2.4 2.4 89 0.7 CALM 0 0 0 0 1016.6 - 0.0
19/04:00am 4.5 3.0 3.0 90 0.6 CALM 0 0 0 0 1016.1 - 0.0
19/03:30am 4.3 2.6 1.7 83 1.1 ENE 0 0 0 0 1016.0 - 0.0
19/03:00am 6.9 5.3 4.6 85 1.0 SW 2 6 1 3 1016.1 1015.4 0.0
19/02:30am 7.4 5.1 5.0 85 1.1 E 6 7 3 4 1016.2 - 0.0
19/02:00am 7.6 5.5 5.6 87 0.9 ESE 6 9 3 5 1016.2 - 0.0
19/01:30am 7.4 4.8 6.0 91 0.7 SE 9 11 5 6 1016.3 - 0.0
19/01:00am 9.1 6.9 6.4 83 1.3 SSE 7 9 4 5 1016.4 - 0.0
19/12:30am 8.4 5.8 6.0 85 1.1 SSE 9 13 5 7 1016.3 - 0.0
19/12:00am 9.6 6.8 7.0 84 1.3 S 11 15 6 8 1016.2 1015.5 0.0
 
Date/Time
EST
Tmp

°C
App
Tmp
°C
Dew
Point
°C
Rel
Hum
%
Delta-T

°C
Wind Press
QNH
hPa
Press
MSL
hPa
Rain
since
9 am
mm
Dir
 
Spd
km/h
Gust
km/h
Spd
kts
Gust
kts
18/11:30pm 10.1 6.9 7.0 81 1.5 SSE 13 17 7 9 1016.0 - 0.0
18/11:00pm 11.7 8.3 7.6 76 2.1 SSE 15 22 8 12 1015.8 - 0.0
18/10:30pm 12.8 9.5 8.1 73 2.4 NW 15 17 8 9 1015.4 - 0.0
18/10:00pm 14.0 10.8 8.6 70 2.8 NNW 15 19 8 10 1015.4 - 0.0
18/09:30pm 14.6 10.7 8.5 67 3.2 NNW 19 20 10 11 1015.4 - 0.0
18/09:00pm 15.0 11.4 8.5 65 3.4 N 17 20 9 11 1015.6 1014.8 0.0
18/08:30pm 14.7 11.2 8.6 67 3.2 NNW 17 20 9 11 1015.4 - 0.0
18/08:00pm 14.7 11.6 8.9 68 3.0 NNW 15 19 8 10 1015.2 - 0.0
18/07:30pm 14.6 11.0 8.5 67 3.2 NW 17 19 9 10 1015.2 - 0.0
18/07:00pm 14.6 10.5 8.8 68 3.0 NW 20 22 11 12 1015.1 - 0.0
18/06:30pm 15.2 11.6 8.4 64 3.5 N 17 19 9 10 1015.1 - 0.0
18/06:00pm 15.5 12.2 8.0 61 3.9 NNW 15 19 8 10 1014.9 1014.2 0.0
18/05:30pm 15.8 12.4 7.8 59 4.1 WNW 15 20 8 11 1014.6 - 0.0
18/05:00pm 16.6 12.8 7.5 55 4.7 NW 17 22 9 12 1014.4 - 0.0
18/04:30pm 17.1 13.0 7.7 54 4.9 W 19 26 10 14 1014.4 - 0.0
18/04:00pm 17.3 12.0 6.8 50 5.4 WNW 24 32 13 17 1014.2 - 0.0
18/03:30pm 18.6 14.5 7.7 49 5.7 WNW 19 28 10 15 1014.2 - 0.0
18/03:00pm 18.3 14.2 8.0 51 5.4 W 19 26 10 14 1014.4 1013.7 0.0
18/02:30pm 18.2 12.7 7.6 50 5.5 WNW 26 32 14 17 1014.2 - 0.0
18/02:00pm 20.0 13.9 9.6 51 5.7 WNW 32 44 17 24 1014.2 - 0.0
18/01:30pm 19.8 14.3 9.1 50 5.8 WNW 28 37 15 20 1014.1 - 0.0
18/01:00pm 19.0 13.7 8.4 50 5.6 WNW 26 35 14 19 1014.7 - 0.0
18/12:30pm 18.2 12.8 7.9 51 5.4 WNW 26 35 14 19 1015.2 - 0.0
18/12:00pm 17.4 13.2 9.6 60 4.2 NW 22 28 12 15 1015.8 1015.0 0.0
18/11:30am 17.1 15.5 11.4 69 3.2 N 11 15 6 8 1016.4 - 0.0
18/11:00am 14.0 12.3 9.8 76 2.2 NNW 9 11 5 6 1016.9 - 0.0
18/10:30am 12.5 11.3 9.7 83 1.5 NNW 6 9 3 5 1017.2 - 0.0
18/10:00am 9.9 8.4 9.0 94 0.5 WNW 7 11 4 6 1017.8 - 0.0
18/09:30am 9.5 8.6 9.4 99 0.1 NNE 4 7 2 4 1018.0 - 0.0
18/09:07am 8.5 8.1 8.4 99 0.0 CALM 0 - 0 - 1018.3 - 0.0
18/09:00am 8.5 8.1 8.4 99 0.0 CALM 0 - 0 - 1018.5 1017.8 0.0
18/08:46am 8.3 7.9 8.2 99 0.0 CALM 0 - 0 - 1018.6 - 0.0
18/08:30am 8.0 7.1 7.9 99 0.0 SE 2 7 1 4 1018.6 - 0.0
18/08:00am 7.5 5.6 7.4 99 0.0 SE 7 7 4 4 1018.5 - 0.0
18/07:42am 7.0 5.0 6.9 99 0.0 E 7 7 4 4 1018.4 - 0.0
18/07:35am 6.8 4.7 6.7 99 0.0 ESE 7 7 4 4 1018.4 - 0.0
18/07:30am 6.7 4.8 6.6 99 0.0 SE 6 7 3 4 1018.5 - 0.0
18/07:00am 6.3 5.4 6.2 99 0.0 CALM 0 2 0 1 1018.4 - 0.0
18/06:30am 5.2 4.1 5.1 99 0.0 CALM 0 7 0 4 1018.0 - 0.0
18/06:00am 4.1 1.5 4.0 99 0.0 NNW 7 9 4 5 1018.0 1017.3 0.0
18/05:30am 3.8 2.4 3.7 99 0.0 CALM 0 - 0 - 1018.1 - 0.0
18/05:00am 4.1 2.8 4.0 99 0.0 CALM 0 0 0 0 1018.3 - 0.0
18/04:30am 4.9 2.6 4.8 99 0.0 NE 6 7 3 4 1018.3 - 0.0
18/04:00am 4.1 1.4 3.8 98 0.1 ENE 7 9 4 5 1018.4 - 0.0
18/03:54am 3.6 1.0 3.3 98 0.1 NNE 6 7 3 4 1018.4 - 0.0
18/03:30am 3.3 1.7 2.4 94 0.4 CALM 0 0 0 0 1018.4 - 0.0
18/03:22am 4.5 3.2 3.9 96 0.3 CALM 0 0 0 0 1018.5 - 0.0
18/03:11am 5.8 4.0 5.5 98 0.1 E 4 7 2 4 1018.5 - 0.0
18/03:00am 5.5 3.1 5.2 98 0.1 E 7 9 4 5 1018.6 1017.9 0.0
18/02:49am 5.4 2.6 5.1 98 0.1 ESE 9 9 5 5 1018.7 - 0.0
18/02:47am 5.5 2.7 5.1 97 0.2 ESE 9 9 5 5 1018.7 - 0.0
18/02:30am 5.3 4.1 4.6 95 0.3 CALM 0 2 0 1 1018.9 - 0.0
18/02:00am 7.3 5.5 7.2 99 0.0 NNE 6 7 3 4 1019.0 - 0.0
18/01:30am 6.3 3.6 5.6 95 0.3 ENE 9 11 5 6 1019.4 - 0.0
18/01:00am 7.3 6.5 6.6 95 0.3 CALM 0 6 0 3 1019.9 - 0.0
18/12:30am 6.9 6.1 6.3 96 0.3 CALM 0 0 0 0 1019.9 - 0.0
18/12:00am 6.8 4.6 6.1 95 0.3 SSE 7 9 4 5 1020.1 1019.4 0.0
 
Date/Time
EST
Tmp

°C
App
Tmp
°C
Dew
Point
°C
Rel
Hum
%
Delta-T

°C
Wind Press
QNH
hPa
Press
MSL
hPa
Rain
since
9 am
mm
Dir
 
Spd
km/h
Gust
km/h
Spd
kts
Gust
kts
17/11:30pm 7.4 4.9 6.7 95 0.3 S 9 11 5 6 1020.2 - 0.0
17/11:00pm 8.2 6.1 6.7 90 0.7 ESE 7 9 4 5 1020.4 - 0.0
17/10:30pm 9.4 7.6 8.0 91 0.7 SE 7 9 4 5 1020.7 - 0.0
17/10:00pm 8.7 8.0 7.0 89 0.8 CALM 0 0 0 0 1020.7 - 0.0
17/09:30pm 8.6 7.9 6.9 89 0.8 CALM 0 0 0 0 1020.7 - 0.0
17/09:00pm 9.6 8.4 6.5 81 1.5 N 2 9 1 5 1020.6 1020.0 0.0
17/08:30pm 10.9 7.9 7.8 81 1.5 ENE 13 17 7 9 1020.4 - 0.0
17/08:00pm 11.0 7.8 8.4 84 1.3 ENE 15 17 8 9 1020.4 - 0.0
17/07:30pm 10.4 8.1 7.5 82 1.4 E 9 11 5 6 1020.1 - 0.0
17/07:00pm 10.2 8.9 6.0 75 2.0 N 2 7 1 4 1019.9 - 0.0
17/06:30pm 12.8 11.0 8.1 73 2.4 NE 7 9 4 5 1019.7 - 0.0
17/06:00pm 14.4 12.3 8.4 67 3.1 N 9 11 5 6 1019.5 1018.8 0.0
17/05:30pm 14.9 11.7 8.6 66 3.3 WNW 15 19 8 10 1019.4 - 0.0
17/05:00pm 16.6 13.2 9.1 61 4.0 NW 17 19 9 10 1019.1 - 0.0
17/04:30pm 18.3 15.6 8.8 54 5.1 NNW 13 20 7 11 1019.0 - 0.0
17/04:00pm 19.5 17.8 8.2 48 6.0 SW 7 11 4 6 1019.0 - 0.0
17/03:30pm 19.5 17.2 7.6 46 6.3 WSW 9 15 5 8 1019.0 - 0.0
17/03:00pm 19.6 17.1 8.0 47 6.1 W 11 17 6 9 1019.3 1018.6 0.0
17/02:30pm 19.7 18.3 7.4 45 6.5 NNW 4 7 2 4 1019.3 - 0.0
17/02:00pm 19.4 17.4 7.2 45 6.4 NE 7 11 4 6 1019.5 - 0.0
17/01:30pm 18.8 16.5 7.3 47 6.0 NW 9 17 5 9 1019.6 - 0.0
17/01:00pm 19.1 17.8 7.8 48 6.0 N 4 11 2 6 1020.0 - 0.0
17/12:30pm 17.3 14.9 6.8 50 5.4 S 9 15 5 8 1020.4 - 0.0
17/12:00pm 17.8 16.5 7.5 51 5.3 E 4 11 2 6 1020.7 1020.1 0.0
17/11:30am 17.2 15.0 7.8 54 4.9 S 9 15 5 8 1021.3 - 0.0
17/11:00am 16.7 14.9 7.9 56 4.6 W 7 9 4 5 1021.7 - 0.0
17/10:30am 15.8 14.4 8.8 63 3.7 WNW 6 7 3 4 1021.8 - 0.0
17/10:00am 14.7 13.8 9.1 69 2.9 SW 4 7 2 4 1021.9 - 0.0
17/09:30am 12.8 11.6 8.1 73 2.4 SSW 4 7 2 4 1022.1 - 0.0
17/09:00am 12.3 11.7 9.0 80 1.7 S 2 6 1 3 1022.1 1021.5 0.0
17/08:30am 10.0 9.1 7.9 87 1.0 WSW 2 7 1 4 1022.2 - 0.0
17/08:00am 8.5 6.8 7.4 93 0.5 W 6 7 3 4 1022.0 - 0.0
17/07:30am 6.6 5.8 6.5 99 0.0 CALM 0 0 0 0 1021.6 - 0.0
17/07:00am 4.4 2.3 4.0 97 0.2 N 4 9 2 5 1021.3 - 0.0
17/06:30am 4.8 3.6 4.5 98 0.1 CALM 0 - 0 - 1020.8 - 0.0
17/06:00am 5.2 4.1 4.9 98 0.1 CALM 0 0 0 0 1020.6 1020.0 0.0
17/05:38am 4.8 3.6 4.4 97 0.2 CALM 0 0 0 0 1020.4 - 0.0
17/05:01am 6.1 4.0 6.0 99 0.0 ESE 6 7 3 4 1020.3 - 0.0
17/04:30am 4.8 3.5 4.2 96 0.3 CALM 0 6 0 3 1020.2 - 0.0
17/04:00am 5.6 3.1 4.9 95 0.3 NNW 7 7 4 4 1020.0 - 0.0
17/03:30am 6.2 5.2 5.8 97 0.2 CALM 0 0 0 0 1020.0 - 0.0
17/03:00am 5.9 4.8 5.3 96 0.3 CALM 0 0 0 0 1020.1 1019.4 0.0
17/02:30am 6.6 5.7 6.0 96 0.3 CALM 0 0 0 0 1020.1 - 0.0
17/02:00am 6.5 5.2 5.8 95 0.3 WSW 2 6 1 3 1020.4 - 0.0
17/01:30am 6.4 4.0 5.2 92 0.5 ESE 7 9 4 5 1020.5 - 0.0
17/01:00am 7.8 5.7 6.7 93 0.5 N 7 9 4 5 1020.7 - 0.0
17/12:30am 7.9 6.3 6.5 91 0.7 E 4 7 2 4 1020.8 - 0.0
17/12:00am 7.8 5.6 6.4 91 0.7 ESE 7 9 4 5 1020.8 1020.2 0.0
 
Date/Time
EST
Tmp

°C
App
Tmp
°C
Dew
Point
°C
Rel
Hum
%
Delta-T

°C
Wind Press
QNH
hPa
Press
MSL
hPa
Rain
since
9 am
mm
Dir
 
Spd
km/h
Gust
km/h
Spd
kts
Gust
kts
16/11:30pm 7.5 5.5 6.1 91 0.7 SE 6 7 3 4 1020.7 - 0.0
16/11:00pm 8.7 6.6 6.5 86 1.1 E 7 9 4 5 1020.7 - 0.0
16/10:30pm 10.4 8.8 8.2 86 1.1 ESE 6 7 3 4 1020.8 - 0.0
16/10:00pm 11.0 10.1 7.9 81 1.6 E 2 9 1 5 1020.8 - 0.0
16/09:30pm 12.1 11.0 8.4 78 1.9 ESE 4 7 2 4 1020.8 - 0.0
16/09:00pm 12.3 9.5 8.4 77 2.0 ENE 13 19 7 10 1020.5 1019.9 0.0
16/08:30pm 12.7 10.2 8.4 75 2.2 ENE 11 17 6 9 1020.2 - 0.0
16/08:00pm 13.2 10.6 9.3 77 2.0 ENE 13 13 7 7 1020.0 - 0.0
16/07:30pm 12.7 10.2 9.7 82 1.6 E 13 15 7 8 1019.7 - 0.0
16/07:00pm 10.5 8.3 7.9 84 1.3 ESE 9 9 5 5 1019.6 - 0.0
16/06:30pm 11.5 9.6 7.6 77 1.9 NE 7 7 4 4 1019.4 - 0.0
16/06:00pm 14.5 12.2 8.9 69 2.9 NNW 11 13 6 7 1019.1 1018.5 0.0
16/05:30pm 15.3 12.6 8.8 65 3.4 NW 13 17 7 9 1018.9 - 0.0
16/05:00pm 16.7 14.5 7.9 56 4.6 N 9 11 5 6 1018.7 - 0.0
16/04:30pm 16.2 13.6 7.7 57 4.4 N 11 13 6 7 1018.5 - 0.0
16/04:00pm 18.4 16.0 6.9 47 5.9 NNW 9 9 5 5 1018.4 - 0.0

Latest Capital City Observations: Canberra | Sydney | Melbourne | Brisbane | Adelaide | Perth | Hobart | Darwin

Other Formats:

Comma delimited format used in spreadsheet applications
http://www.bom.gov.au/fwo/IDN60903/IDN60903.94926.axf

JavaScript Object Notation format (JSON) in row-major order
http://www.bom.gov.au/fwo/IDN60903/IDN60903.94926.json